Olney, Texas
Current Conditions -  °F | °C
As of 4:30 AM on Saturday 22 Nov 2014 (Local Time) from KRPH Reporting Station
Broken Clouds Broken Clouds  
Wind Chill: 64°   Ceiling: 1600
Heat Index: 64°   Visibility: 10mi
Dew Point: 62°   Wind: 9mph
Humidity: 95%   Direction: 140°SE
Pressure: 29.97"   Gusts: 16mph
Location:  33.37°N, 98.75°W
Report Text: KRPH 221030Z AUTO 14008G14KT 10SM BKN016 BKN021 BKN095 18/17 A2997 RMK AO2 T01750167
Loading
Personal Weather Stations






























Interactive Weather Map New forecast layout! Learn more

10-Day Weather Forecast

Advertisements
Track Severe Weather on mobile